Matthews, North Carolina
Current Conditions -  °F | °C
As of 4:53 PM on Thursday 20 Nov 2014 (Local Time) from KEQY Reporting Station
Clear Clear  
Wind Chill: 55°   Ceiling: Unl
Heat Index: 55°   Visibility: 10mi
Dew Point: 28°   Wind: 9mph
Humidity: 35%   Direction: 250°WSW
Pressure: 30.06"   Gusts: NA
Location:  35.12°N, 80.72°W
Report Text: KEQY 202153Z AUTO 25008KT 10SM CLR 13/M02 A3006 RMK AO2 SLP197 T01281022
Loading
Personal Weather Stations






























Interactive Weather Map New forecast layout! Learn more

10-Day Weather Forecast

Advertisements
Track Severe Weather on mobile